Christian Radich — LJLM — position and weather

sailwx.info

Track history (hours):
 
Tides and Currents Weather Stations Pressure Air Temp Water Temp Dewpoint Dewpoint Depression Visibility Wind Speed Wind Dir Waves Ship Positions

Christian Radich (Norway)

Last reported at 2017-Aug-20 11:28 UTC. Time now 2017-Aug-20 11:29 UTC.
Position N 59°54' E 010°44'.

Length 63 m; draft 5 m.

Type: Sailing vessel. MMSI: 258373000.

Date/timePositionNaut miles runAvg speedWind from/ knotsBaromVisibWave heightAir tempDewpointWater temp
2017-Aug-20 11:28N 59°54' E 010°44'0 0.0
2017-Aug-20 10:59N 59°54' E 010°44'0 0.0
2017-Aug-20 10:29N 59°54' E 010°44'0 0.0
2017-Aug-20 09:59N 59°54' E 010°44'0 0.0
2017-Aug-20 09:30N 59°54' E 010°44'0 0.0
2017-Aug-20 09:00N 59°54' E 010°44'0 0.0
2017-Aug-20 08:30N 59°54' E 010°44'0 0.0
2017-Aug-20 07:58N 59°54' E 010°44'0 0.0
2017-Aug-20 07:28N 59°54' E 010°44'0 0.0
2017-Aug-20 06:58N 59°54' E 010°44'0 0.0
2017-Aug-20 06:29N 59°54' E 010°44'0 0.0
2017-Aug-20 05:59N 59°54' E 010°44'0 0.0
2017-Aug-20 05:29N 59°54' E 010°44'0 0.0
2017-Aug-20 05:00N 59°54' E 010°44'0 0.0
2017-Aug-20 04:30N 59°54' E 010°44'0 0.0
2017-Aug-20 04:00N 59°54' E 010°44'0 0.0
2017-Aug-20 03:28N 59°54' E 010°44'0 0.0
2017-Aug-20 02:58N 59°54' E 010°44'0 0.0
2017-Aug-20 02:28N 59°54' E 010°44'0 0.0
2017-Aug-20 01:59N 59°54' E 010°44'0 0.0
2017-Aug-20 01:29N 59°54' E 010°44'0 0.0
2017-Aug-20 00:58N 59°54' E 010°44'0 0.0
2017-Aug-20 00:29N 59°54' E 010°44'0 0.0
2017-Aug-19 23:59N 59°54' E 010°44'0 0.0
2017-Aug-19 23:29N 59°54' E 010°44'0 0.0
2017-Aug-19 22:58N 59°54' E 010°44'0 0.0
2017-Aug-19 22:28N 59°54' E 010°44'0 0.0
2017-Aug-19 21:59N 59°54' E 010°44'0 0.0
2017-Aug-19 21:29N 59°54' E 010°44'0 0.0
2017-Aug-19 20:59N 59°54' E 010°44'0 0.0
2017-Aug-19 20:30N 59°54' E 010°44'0 0.1
2017-Aug-19 20:00N 59°54' E 010°44'2 3.7
2017-Aug-19 19:30N 59°53' E 010°41'1 2.2
2017-Aug-19 19:00N 59°53' E 010°39'1 2.7
2017-Aug-19 18:30N 59°52' E 010°41'2 3.0
2017-Aug-19 18:00N 59°51' E 010°42'2 3.4
2017-Aug-19 17:30N 59°50' E 010°45'1 2.5
2017-Aug-19 17:00N 59°52' E 010°45'1 2.5
2017-Aug-19 16:30N 59°53' E 010°45'1 1.2
2017-Aug-19 16:00N 59°53' E 010°44'1 2.7
2017-Aug-19 15:30N 59°54' E 010°44'0 0.2
2017-Aug-19 14:59N 59°54' E 010°44'0 0.0
2017-Aug-19 14:00N 59°54' E 010°44'0 0.0
2017-Aug-19 13:30N 59°54' E 010°44'0 0.0
2017-Aug-19 12:58N 59°54' E 010°44'0 0.0
2017-Aug-19 12:28N 59°54' E 010°44'0 0.0
2017-Aug-19 12:00N 59°54' E 010°44'1 2.3
2017-Aug-19 11:30N 59°54' E 010°42'1 2.7
2017-Aug-19 11:00N 59°53' E 010°41'2 4.2
2017-Aug-19 10:30N 59°51' E 010°44'2 4.1
2017-Aug-19 10:00N 59°53' E 010°44'1 2.6
2017-Aug-19 09:29N 59°54' E 010°44'0 0.5
2017-Aug-19 08:59N 59°54' E 010°44'0 0.0
2017-Aug-19 08:30N 59°54' E 010°44'0 0.0
2017-Aug-19 08:00N 59°54' E 010°44'0 0.0
2017-Aug-19 07:30N 59°54' E 010°44'0 0.0
2017-Aug-19 06:58N 59°54' E 010°44'0 0.0
2017-Aug-19 06:28N 59°54' E 010°44'0 0.0
2017-Aug-19 05:58N 59°54' E 010°44'0 0.0
2017-Aug-19 05:29N 59°54' E 010°44'0 0.0
2017-Aug-19 04:59N 59°54' E 010°44'0 0.0
2017-Aug-19 04:29N 59°54' E 010°44'0 0.0
2017-Aug-19 04:00N 59°54' E 010°44'0 0.0
2017-Aug-19 03:28N 59°54' E 010°44'0 0.0
2017-Aug-19 02:58N 59°54' E 010°44'0 0.0
2017-Aug-19 02:29N 59°54' E 010°44'0 0.0
2017-Aug-19 01:59N 59°54' E 010°44'0 0.0
2017-Aug-19 01:29N 59°54' E 010°44'0 0.0
2017-Aug-19 00:59N 59°54' E 010°44'0 0.0
2017-Aug-19 00:29N 59°54' E 010°44'0 0.0
2017-Aug-18 23:59N 59°54' E 010°44'0 0.0
2017-Aug-18 23:30N 59°54' E 010°44'0 0.0
2017-Aug-18 22:59N 59°54' E 010°44'0 0.0
2017-Aug-18 22:25N 59°54' E 010°44'0 0.0
2017-Aug-18 21:58N 59°54' E 010°44'0 0.0
2017-Aug-18 21:28N 59°54' E 010°44'0 0.0
2017-Aug-18 20:59N 59°54' E 010°44'0 0.0
2017-Aug-18 20:29N 59°54' E 010°44'0 0.0
2017-Aug-18 19:59N 59°54' E 010°44'0 0.0
2017-Aug-18 19:30N 59°54' E 010°44'0 0.0
2017-Aug-18 19:00N 59°54' E 010°44'0 0.0
2017-Aug-18 18:30N 59°54' E 010°44'0 0.0
2017-Aug-18 17:58N 59°54' E 010°44'0 0.0
2017-Aug-18 17:28N 59°54' E 010°44'0 0.0
2017-Aug-18 16:58N 59°54' E 010°44'0 0.0
2017-Aug-18 16:29N 59°54' E 010°44'0 0.0
2017-Aug-18 15:59N 59°54' E 010°44'0 0.0
2017-Aug-18 15:29N 59°54' E 010°44'0 0.0
2017-Aug-18 15:00N 59°54' E 010°44'0 0.0
2017-Aug-18 14:00N 59°54' E 010°44'0 0.0
2017-Aug-18 13:30N 59°54' E 010°44'0 0.0
2017-Aug-18 13:00N 59°54' E 010°44'0 0.0
2017-Aug-18 12:30N 59°54' E 010°44'0 0.0
2017-Aug-18 11:57N 59°54' E 010°44'0 0.0
2017-Aug-18 11:30N 59°54' E 010°44'0 0.0
2017-Aug-18 10:58N 59°54' E 010°44'0 0.0
2017-Aug-18 10:29N 59°54' E 010°44'0 0.0
2017-Aug-18 09:59N 59°54' E 010°44'0 0.0
2017-Aug-18 09:29N 59°54' E 010°44'0 0.0
2017-Aug-18 09:00N 59°54' E 010°44'0 0.0
2017-Aug-18 08:30N 59°54' E 010°44'0 0.0
2017-Aug-18 08:00N 59°54' E 010°44'0 0.0
2017-Aug-18 07:28N 59°54' E 010°44'0 0.0
2017-Aug-18 06:58N 59°54' E 010°44'0 0.0
2017-Aug-18 06:28N 59°54' E 010°44'0 0.0
2017-Aug-18 05:59N 59°54' E 010°44'0 0.0
2017-Aug-18 05:29N 59°54' E 010°44'0 0.0
2017-Aug-18 04:59N 59°54' E 010°44'0 0.0
2017-Aug-18 04:30N 59°54' E 010°44'0 0.0
2017-Aug-18 04:00N 59°54' E 010°44'0 0.0
2017-Aug-18 03:29N 59°54' E 010°44'0 0.0
2017-Aug-18 02:59N 59°54' E 010°44'0 0.0
2017-Aug-18 02:30N 59°54' E 010°44'0 0.0
2017-Aug-18 02:00N 59°54' E 010°44'0 0.0
2017-Aug-18 01:30N 59°54' E 010°44'0 0.0
2017-Aug-18 00:59N 59°54' E 010°44'0 0.0
2017-Aug-18 00:29N 59°54' E 010°44'0 0.0
2017-Aug-18 00:00N 59°54' E 010°44'0 0.0
2017-Aug-17 23:30N 59°54' E 010°44'0 0.0
2017-Aug-17 23:00N 59°54' E 010°44'0 0.0
2017-Aug-17 22:28N 59°54' E 010°44'0 0.0
2017-Aug-17 21:58N 59°54' E 010°44'0 0.0
2017-Aug-17 21:29N 59°54' E 010°44'0 0.0
2017-Aug-17 20:59N 59°54' E 010°44'0 0.0
2017-Aug-17 20:29N 59°54' E 010°44'0 0.0
2017-Aug-17 20:00N 59°54' E 010°44'0 0.0
2017-Aug-17 18:40N 59°54' E 010°44'0 0.0
2017-Aug-17 18:28N 59°54' E 010°44'0 0.0
2017-Aug-17 17:58N 59°54' E 010°44'0 0.0
2017-Aug-17 17:28N 59°54' E 010°44'0 0.0
2017-Aug-17 16:59N 59°54' E 010°44'0 0.0
2017-Aug-17 16:29N 59°54' E 010°44'0 0.0
2017-Aug-17 15:59N 59°54' E 010°44'0 0.0
2017-Aug-17 15:30N 59°54' E 010°44'0 0.0
2017-Aug-17 15:00N 59°54' E 010°44'0 0.0
2017-Aug-17 14:30N 59°54' E 010°44'0 0.0
2017-Aug-17 13:58N 59°54' E 010°44'0 0.0
2017-Aug-17 13:28N 59°54' E 010°44'0 0.0
2017-Aug-17 12:58N 59°54' E 010°44'0 0.0
2017-Aug-17 12:29N 59°54' E 010°44'0 0.0
2017-Aug-17 11:59N 59°54' E 010°44'0 0.0
2017-Aug-17 11:29N 59°54' E 010°44'0 0.0
2017-Aug-17 11:00N 59°54' E 010°44'0 0.0
2017-Aug-17 10:30N 59°54' E 010°44'0 0.0
2017-Aug-17 10:00N 59°54' E 010°44'0 0.0
2017-Aug-17 09:28N 59°54' E 010°44'0 0.0
2017-Aug-17 08:58N 59°54' E 010°44'0 0.0
2017-Aug-17 08:28N 59°54' E 010°44'0 0.0
2017-Aug-17 07:58N 59°54' E 010°44'1 2.4
2017-Aug-17 07:30N 59°54' E 010°42'2 3.7
2017-Aug-17 07:00N 59°53' E 010°39'2 3.1
2017-Aug-17 06:30N 59°51' E 010°38'2 3.0
2017-Aug-17 06:00N 59°50' E 010°36'1 2.7
2017-Aug-17 05:30N 59°49' E 010°35'2 4.9
2017-Aug-17 05:00N 59°46' E 010°35'2 4.8
2017-Aug-17 04:30N 59°44' E 010°35'2 4.5
2017-Aug-17 04:00N 59°42' E 010°36'2 3.8
2017-Aug-17 03:30N 59°40' E 010°37'2 4.4
2017-Aug-17 03:00N 59°38' E 010°38'2 4.6
2017-Aug-17 02:30N 59°36' E 010°38'2 4.4
2017-Aug-17 02:00N 59°33' E 010°38'2 4.3
2017-Aug-17 01:30N 59°31' E 010°36'2 4.5
2017-Aug-17 01:00N 59°29' E 010°35'2 4.4
2017-Aug-17 00:30N 59°27' E 010°34'2 4.0
2017-Aug-17 00:00N 59°25' E 010°34'2 4.3
2017-Aug-16 23:30N 59°23' E 010°35'3 5.0
2017-Aug-16 23:00N 59°20' E 010°36'3 5.1
2017-Aug-16 22:30N 59°18' E 010°37'2 3.8
2017-Aug-16 22:00N 59°16' E 010°37'2 4.7
2017-Aug-16 21:30N 59°14' E 010°38'3 5.5
2017-Aug-16 21:00N 59°11' E 010°39'3 6.2
2017-Aug-16 20:30N 59°08' E 010°39'3 6.4
2017-Aug-16 20:00N 59°05' E 010°39'3 6.3
2017-Aug-16 19:30N 59°02' E 010°39'3 5.8
2017-Aug-16 19:01N 58°59' E 010°37'3 6.3
2017-Aug-16 18:30N 58°58' E 010°31'3 5.8
2017-Aug-16 18:00N 58°56' E 010°26'3 5.7
2017-Aug-16 17:30N 58°55' E 010°21'3 5.7
2017-Aug-16 17:00N 58°54' E 010°16'3 5.6
2017-Aug-16 16:30N 58°52' E 010°11'3 5.8
2017-Aug-16 16:00N 58°51' E 010°06'3 5.4
2017-Aug-16 15:31N 58°50' E 010°02'3 6.0
2017-Aug-16 15:00N 58°49' E 009°57'3 6.5
2017-Aug-16 14:30N 58°47' E 009°51'3 6.6
2017-Aug-16 14:00N 58°46' E 009°45'3 6.4
2017-Aug-16 13:30N 58°45' E 009°39'3 5.8
2017-Aug-16 13:00N 58°44' E 009°34'3 5.5
2017-Aug-16 12:30N 58°43' E 009°29'3 6.2
2017-Aug-16 11:57N 58°42' E 009°23'3 6.3
2017-Aug-16 11:30N 58°42' E 009°17'2 2.7
2017-Aug-16 10:50N 58°43' E 009°14'0 0.0
2017-Aug-16 10:29N 58°43' E 009°14'0 0.0
2017-Aug-16 09:48N 58°43' E 009°14'0 0.0
2017-Aug-16 09:30N 58°43' E 009°14'0 0.0
2017-Aug-16 09:00N 58°43' E 009°14'0 0.0
2017-Aug-16 08:19N 58°43' E 009°14'0 0.0
2017-Aug-16 07:55N 58°43' E 009°14'0 0.0
2017-Aug-16 07:28N 58°43' E 009°14'0 0.0
2017-Aug-16 06:55N 58°43' E 009°14'0 0.3
2017-Aug-16 06:30N 58°43' E 009°15'1 2.9
2017-Aug-16 05:59N 58°42' E 009°15'1 2.6
2017-Aug-16 05:30N 58°40' E 009°16'1 2.8
2017-Aug-16 05:01N 58°39' E 009°16'2 3.4
2017-Aug-16 04:30N 58°38' E 009°15'2 4.5
2017-Aug-16 04:01N 58°36' E 009°12'2 4.5
2017-Aug-16 03:30N 58°34' E 009°10'2 4.4
2017-Aug-16 03:00N 58°32' E 009°07'2 3.9
2017-Aug-16 02:30N 58°31' E 009°05'2 3.9
2017-Aug-16 02:00N 58°29' E 009°03'2 4.1
2017-Aug-16 01:30N 58°27' E 009°01'2 3.6
2017-Aug-16 01:00N 58°26' E 008°59'2 3.6
2017-Aug-16 00:30N 58°24' E 008°57'2 3.1
2017-Aug-16 00:00N 58°23' E 008°55'2 4.3
2017-Aug-15 23:30N 58°21' E 008°52'2 5.0
2017-Aug-15 23:00N 58°20' E 008°49'2 5.0
2017-Aug-15 22:30N 58°18' E 008°46'2 4.9
2017-Aug-15 22:00N 58°16' E 008°42'2 4.9
2017-Aug-15 21:30N 58°14' E 008°39'2 4.9
2017-Aug-15 21:00N 58°13' E 008°35'2 5.0
2017-Aug-15 20:30N 58°11' E 008°32'2 5.0
2017-Aug-15 20:00N 58°09' E 008°29'3 5.0
2017-Aug-15 19:30N 58°08' E 008°25'2 4.8
2017-Aug-15 19:00N 58°06' E 008°22'2 4.7
2017-Aug-15 18:30N 58°05' E 008°18'2 4.8
2017-Aug-15 18:00N 58°04' E 008°14'3 5.0
2017-Aug-15 17:30N 58°03' E 008°09'2 5.0
2017-Aug-15 17:00N 58°02' E 008°05'3 6.4
2017-Aug-15 16:30N 58°01' E 007°60'3 6.1
2017-Aug-15 16:00N 57°59' E 007°55'3 6.0
2017-Aug-15 15:30N 57°59' E 007°49'3 5.9
2017-Aug-15 15:00N 57°58' E 007°44'3 6.0
2017-Aug-15 14:30N 57°57' E 007°38'3 6.1
2017-Aug-15 14:00N 57°56' E 007°33'3 6.0
2017-Aug-15 13:31N 57°56' E 007°27'3 6.1
2017-Aug-15 12:59N 57°56' E 007°21'3 5.7
2017-Aug-15 12:30N 57°56' E 007°16'3 5.5
2017-Aug-15 12:00N 57°56' E 007°11'2 5.1
2017-Aug-15 11:31N 57°56' E 007°06'2 4.5
2017-Aug-15 11:00N 57°57' E 007°02'2 4.3
2017-Aug-15 10:31N 57°57' E 006°58'2 4.3
2017-Aug-15 10:00N 57°57' E 006°54'2 4.2
2017-Aug-15 09:31N 57°58' E 006°50'2 3.8
2017-Aug-15 09:01N 57°58' E 006°47'2 3.7
2017-Aug-15 08:30N 57°59' E 006°43'2 3.4
2017-Aug-15 08:01N 58°00' E 006°41'2 3.5
2017-Aug-15 07:31N 58°01' E 006°38'2 3.8
2017-Aug-15 07:00N 58°02' E 006°35'2 3.9
2017-Aug-15 06:30N 58°03' E 006°32'2 4.2
2017-Aug-15 06:00N 58°04' E 006°28'2 4.3
2017-Aug-15 05:31N 58°05' E 006°25'2 4.5
2017-Aug-15 05:01N 58°06' E 006°21'2 4.3
2017-Aug-15 04:30N 58°07' E 006°17'0 0.9
2017-Aug-15 04:00N 58°07' E 006°18'1 1.4
2017-Aug-15 03:31N 58°08' E 006°17'2 3.3
2017-Aug-15 03:00N 58°09' E 006°15'2 3.5
2017-Aug-15 02:31N 58°11' E 006°14'2 3.4
2017-Aug-15 02:00N 58°12' E 006°11'2 3.1
2017-Aug-15 01:30N 58°13' E 006°09'2 3.1
2017-Aug-15 01:00N 58°14' E 006°07'2 3.1
2017-Aug-15 00:30N 58°15' E 006°05'2 3.3
2017-Aug-15 00:01N 58°16' E 006°03'2 3.3
2017-Aug-14 23:30N 58°17' E 006°00'2 3.2
2017-Aug-14 23:01N 58°18' E 005°58'2 3.5
2017-Aug-14 22:30N 58°20' E 005°56'2 4.2
2017-Aug-14 22:00N 58°21' E 005°53'2 4.5
2017-Aug-14 21:31N 58°23' E 005°50'2 4.7
2017-Aug-14 21:01N 58°25' E 005°47'2 4.5
2017-Aug-14 20:30N 58°26' E 005°45'2 4.6
2017-Aug-14 20:00N 58°28' E 005°42'2 4.7
2017-Aug-14 19:30N 58°30' E 005°38'3 5.8
2017-Aug-14 19:01N 58°32' E 005°34'3 6.5
2017-Aug-14 18:31N 58°35' E 005°32'3 7.0
2017-Aug-14 18:01N 58°38' E 005°29'4 7.6
2017-Aug-14 17:30N 58°42' E 005°27'4 7.9
2017-Aug-14 17:01N 58°45' E 005°26'4 7.4
2017-Aug-14 16:31N 58°49' E 005°26'4 8.0
2017-Aug-14 16:00N 58°52' E 005°31'4 8.3
2017-Aug-14 15:30N 58°56' E 005°33'4 8.1
2017-Aug-14 15:01N 59°00' E 005°33'3 5.6
2017-Aug-14 14:30N 59°03' E 005°36'5 9.3
2017-Aug-14 14:00N 58°59' E 005°43'1 2.2
2017-Aug-14 13:31N 59°00' E 005°41'4 7.1
2017-Aug-14 13:01N 59°02' E 005°36'3 6.8
2017-Aug-14 12:31N 59°05' E 005°32'3 6.3
2017-Aug-14 12:01N 59°06' E 005°26'0 1.0
2017-Aug-14 11:30N 59°06' E 005°25'1 2.4
2017-Aug-14 11:00N 59°07' E 005°23'3 6.2
2017-Aug-14 10:30N 59°08' E 005°17'1 1.5
2017-Aug-14 09:59N 59°09' E 005°16'0 0.0
2017-Aug-14 09:29N 59°09' E 005°16'0 0.0
2017-Aug-14 08:59N 59°09' E 005°16'0 0.0
2017-Aug-14 08:30N 59°09' E 005°16'0 0.0
2017-Aug-14 08:00N 59°09' E 005°16'0 0.0
2017-Aug-14 07:30N 59°09' E 005°16'0 0.0
2017-Aug-14 06:58N 59°09' E 005°16'0 0.0
2017-Aug-14 06:28N 59°09' E 005°16'0 0.0
2017-Aug-14 05:58N 59°09' E 005°16'0 0.0
2017-Aug-14 05:29N 59°09' E 005°16'0 0.0
2017-Aug-14 04:59N 59°09' E 005°16'0 0.0
2017-Aug-14 04:29N 59°09' E 005°16'0 0.0
2017-Aug-14 04:00N 59°09' E 005°16'0 0.0
2017-Aug-14 03:30N 59°09' E 005°16'0 0.0
2017-Aug-14 03:00N 59°09' E 005°16'0 0.0
2017-Aug-14 02:28N 59°09' E 005°16'0 0.0
2017-Aug-14 01:58N 59°09' E 005°16'0 0.0
2017-Aug-14 01:28N 59°09' E 005°16'0 0.0
2017-Aug-14 00:59N 59°09' E 005°16'0 0.0
2017-Aug-14 00:29N 59°09' E 005°16'0 0.0
2017-Aug-13 23:59N 59°09' E 005°16'0 0.0
2017-Aug-13 23:30N 59°09' E 005°16'0 0.0
2017-Aug-13 23:00N 59°09' E 005°16'0 0.0
2017-Aug-13 22:30N 59°09' E 005°16'0 0.0
2017-Aug-13 21:58N 59°09' E 005°16'0 0.0
2017-Aug-13 21:28N 59°09' E 005°16'0 0.0
2017-Aug-13 20:58N 59°09' E 005°16'0 0.0
2017-Aug-13 20:29N 59°09' E 005°16'0 0.0
2017-Aug-13 19:59N 59°09' E 005°16'0 0.0
2017-Aug-13 19:29N 59°09' E 005°16'0 0.0
2017-Aug-13 19:00N 59°09' E 005°16'1 1.8
2017-Aug-13 18:30N 59°08' E 005°18'1 2.8
2017-Aug-13 18:00N 59°09' E 005°20'3 5.1
2017-Aug-13 17:30N 59°11' E 005°20'2 4.2
2017-Aug-13 17:00N 59°13' E 005°21'2 4.8
2017-Aug-13 16:30N 59°11' E 005°21'2 4.9
2017-Aug-13 16:00N 59°08' E 005°21'2 3.6
2017-Aug-13 15:31N 59°08' E 005°18'1 2.0
2017-Aug-13 14:58N 59°09' E 005°16'0 0.0
2017-Aug-13 14:28N 59°09' E 005°16'0 0.0
2017-Aug-13 13:59N 59°09' E 005°16'0 0.0
2017-Aug-13 13:29N 59°09' E 005°16'0 0.0
2017-Aug-13 13:00N 59°09' E 005°16'1 2.3
2017-Aug-13 12:31N 59°08' E 005°18'2 4.2
2017-Aug-13 12:01N 59°10' E 005°20'3 5.2
2017-Aug-13 11:31N 59°12' E 005°20'3 6.3
2017-Aug-13 11:01N 59°16' E 005°20'3 6.5
2017-Aug-13 10:30N 59°19' E 005°20'3 6.1
2017-Aug-13 10:00N 59°22' E 005°18'3 5.9
2017-Aug-13 09:31N 59°24' E 005°16'0 0.8
2017-Aug-13 08:58N 59°25' E 005°16'0 0.0
2017-Aug-13 08:29N 59°25' E 005°16'0 0.0
2017-Aug-13 07:59N 59°25' E 005°16'0 0.0
2017-Aug-13 07:29N 59°25' E 005°16'0 0.0
2017-Aug-13 07:00N 59°25' E 005°16'0 0.0
2017-Aug-13 06:30N 59°25' E 005°16'0 0.0
2017-Aug-13 06:00N 59°25' E 005°16'0 0.0
2017-Aug-13 05:28N 59°25' E 005°16'0 0.0
2017-Aug-13 04:58N 59°25' E 005°16'0 0.0
2017-Aug-13 04:28N 59°25' E 005°16'0 0.0
2017-Aug-13 03:59N 59°25' E 005°16'0 0.0
2017-Aug-13 03:29N 59°25' E 005°16'0 0.0
2017-Aug-13 02:59N 59°25' E 005°16'0 0.0
2017-Aug-13 02:30N 59°25' E 005°16'0 0.0
2017-Aug-13 02:00N 59°25' E 005°16'0 0.0
2017-Aug-13 01:30N 59°25' E 005°16'0 0.0
2017-Aug-13 00:58N 59°25' E 005°16'0 0.0
2017-Aug-13 00:28N 59°25' E 005°16'0 0.0
2017-Aug-12 23:58N 59°25' E 005°16'0 0.0
2017-Aug-12 23:29N 59°25' E 005°16'0 0.0
2017-Aug-12 22:59N 59°25' E 005°16'0 0.0
2017-Aug-12 22:29N 59°25' E 005°16'0 0.0
2017-Aug-12 22:00N 59°25' E 005°16'0 0.0
2017-Aug-12 21:27N 59°25' E 005°16'0 0.0
2017-Aug-12 21:00N 59°25' E 005°16'0 0.0
2017-Aug-12 20:22N 59°25' E 005°16'0 0.0
2017-Aug-12 19:58N 59°25' E 005°16'0 0.0
2017-Aug-12 19:22N 59°25' E 005°16'0 0.0
2017-Aug-12 18:59N 59°25' E 005°16'0 0.0
2017-Aug-12 18:29N 59°25' E 005°16'0 0.0
2017-Aug-12 17:59N 59°25' E 005°16'0 0.0
2017-Aug-12 17:30N 59°25' E 005°16'0 0.0
2017-Aug-12 17:00N 59°25' E 005°16'0 0.0
2017-Aug-12 16:27N 59°25' E 005°16'0 0.0
2017-Aug-12 15:58N 59°25' E 005°16'0 0.0
2017-Aug-12 15:28N 59°25' E 005°16'0 0.0
2017-Aug-12 14:58N 59°25' E 005°16'0 0.0
2017-Aug-12 14:26N 59°25' E 005°16'0 0.0
2017-Aug-12 13:59N 59°25' E 005°16'0 0.0
2017-Aug-12 13:29N 59°25' E 005°16'0 0.0
2017-Aug-12 13:00N 59°25' E 005°16'0 0.0
2017-Aug-12 12:30N 59°25' E 005°16'0 0.0
2017-Aug-12 11:57N 59°25' E 005°16'0 0.0
2017-Aug-12 11:22N 59°25' E 005°16'0 0.0
2017-Aug-12 10:58N 59°25' E 005°16'0 0.0
2017-Aug-12 10:28N 59°25' E 005°16'0 0.0
2017-Aug-12 09:59N 59°25' E 005°16'0 0.0
2017-Aug-12 09:29N 59°25' E 005°16'0 0.0
2017-Aug-12 08:59N 59°25' E 005°16'0 0.0
2017-Aug-12 08:30N 59°25' E 005°16'0 0.0
2017-Aug-12 08:00N 59°25' E 005°16'0 0.0
2017-Aug-12 07:30N 59°25' E 005°16'0 0.0
2017-Aug-12 06:58N 59°25' E 005°16'0 0.0
2017-Aug-12 06:28N 59°25' E 005°16'0 0.0
2017-Aug-12 05:58N 59°25' E 005°16'0 0.0
2017-Aug-12 05:29N 59°25' E 005°16'0 0.0
2017-Aug-12 04:59N 59°25' E 005°16'0 0.0
2017-Aug-12 04:29N 59°25' E 005°16'0 0.0
2017-Aug-12 04:00N 59°25' E 005°16'0 0.0
2017-Aug-12 03:30N 59°25' E 005°16'0 0.0
2017-Aug-12 03:00N 59°25' E 005°16'0 0.0
2017-Aug-12 02:28N 59°25' E 005°16'0 0.0
2017-Aug-12 01:55N 59°25' E 005°16'0 0.0
2017-Aug-12 01:28N 59°25' E 005°16'0 0.0
2017-Aug-12 00:59N 59°25' E 005°16'0 0.0
2017-Aug-12 00:29N 59°25' E 005°16'0 0.0
2017-Aug-11 23:59N 59°25' E 005°16'0 0.0
2017-Aug-11 23:30N 59°25' E 005°16'0 0.0
2017-Aug-11 23:00N 59°25' E 005°16'0 0.0
2017-Aug-11 22:30N 59°25' E 005°16'0 0.0
2017-Aug-11 21:58N 59°25' E 005°16'0 0.0
2017-Aug-11 21:28N 59°25' E 005°16'0 0.0
2017-Aug-11 20:58N 59°25' E 005°16'0 0.0
2017-Aug-11 20:29N 59°25' E 005°16'0 0.0
2017-Aug-11 19:59N 59°25' E 005°16'0 0.0
2017-Aug-11 19:26N 59°25' E 005°16'0 0.0
2017-Aug-11 19:00N 59°25' E 005°16'0 0.0
2017-Aug-11 18:30N 59°25' E 005°16'0 0.0
2017-Aug-11 18:00N 59°25' E 005°16'0 0.0
2017-Aug-11 17:28N 59°25' E 005°16'0 0.0
2017-Aug-11 16:58N 59°25' E 005°16'0 0.0
2017-Aug-11 16:28N 59°25' E 005°16'0 0.0
2017-Aug-11 15:59N 59°25' E 005°16'0 0.0
2017-Aug-11 15:29N 59°25' E 005°16'0 0.0
2017-Aug-11 14:59N 59°25' E 005°16'0 0.0
2017-Aug-11 14:30N 59°25' E 005°16'0 0.0
2017-Aug-11 13:26N 59°25' E 005°16'0 0.0
2017-Aug-11 12:56N 59°25' E 005°16'0 0.0
2017-Aug-11 12:29N 59°25' E 005°16'0 0.0
2017-Aug-11 11:59N 59°25' E 005°16'0 0.0
2017-Aug-11 11:27N 59°25' E 005°16'0 0.0
2017-Aug-11 11:00N 59°25' E 005°16'0 0.0
2017-Aug-11 10:30N 59°25' E 005°16'0 0.0
2017-Aug-11 09:58N 59°25' E 005°16'0 0.0
2017-Aug-11 09:28N 59°25' E 005°16'0 0.0
2017-Aug-11 08:59N 59°25' E 005°16'0 0.0
2017-Aug-11 08:29N 59°25' E 005°16'0 0.0
2017-Aug-11 07:59N 59°25' E 005°16'0 0.0
2017-Aug-11 07:30N 59°25' E 005°16'0 0.0
2017-Aug-11 07:00N 59°25' E 005°16'0 0.0
2017-Aug-11 06:30N 59°25' E 005°16'0 0.0
2017-Aug-11 06:01N 59°25' E 005°16'0 0.0
2017-Aug-11 05:28N 59°25' E 005°16'0 0.0
2017-Aug-11 04:58N 59°25' E 005°16'0 0.0
2017-Aug-11 04:29N 59°25' E 005°16'0 0.0
2017-Aug-11 03:56N 59°25' E 005°16'0 0.0
2017-Aug-11 03:29N 59°25' E 005°16'0 0.0
2017-Aug-11 03:00N 59°25' E 005°16'0 0.0
2017-Aug-11 02:27N 59°25' E 005°16'0 0.0
2017-Aug-11 01:57N 59°25' E 005°16'0 0.0
2017-Aug-11 01:28N 59°25' E 005°16'0 0.0
2017-Aug-11 00:58N 59°25' E 005°16'0 0.0
2017-Aug-11 00:28N 59°25' E 005°16'0 0.0
2017-Aug-10 23:59N 59°25' E 005°16'0 0.0
2017-Aug-10 23:26N 59°25' E 005°16'0 0.0
2017-Aug-10 22:59N 59°25' E 005°16'0 0.0
2017-Aug-10 22:30N 59°25' E 005°16'0 0.0
2017-Aug-10 22:00N 59°25' E 005°16'0 0.0
2017-Aug-10 21:30N 59°25' E 005°16'0 0.0
2017-Aug-10 21:00N 59°25' E 005°16'0 0.0
2017-Aug-10 20:28N 59°25' E 005°16'0 0.0
2017-Aug-10 19:58N 59°25' E 005°16'0 0.0
2017-Aug-10 19:29N 59°25' E 005°16'0 0.0
2017-Aug-10 18:59N 59°25' E 005°16'0 0.0
2017-Aug-10 18:29N 59°25' E 005°16'0 0.0
2017-Aug-10 17:59N 59°25' E 005°16'0 0.0
2017-Aug-10 17:30N 59°25' E 005°16'0 0.0
2017-Aug-10 17:00N 59°25' E 005°16'0 0.0
2017-Aug-10 16:30N 59°25' E 005°16'0 0.0
2017-Aug-10 15:58N 59°25' E 005°16'0 0.0
2017-Aug-10 15:28N 59°25' E 005°16'0 0.0
2017-Aug-10 15:00N 59°25' E 005°16'0 0.3
2017-Aug-10 14:30N 59°25' E 005°16'1 1.7
2017-Aug-10 13:58N 59°24' E 005°16'1 2.0
2017-Aug-10 13:30N 59°23' E 005°17'1 2.1
2017-Aug-10 13:00N 59°24' E 005°16'2 3.1
2017-Aug-10 12:30N 59°25' E 005°14'1 2.5
2017-Aug-10 12:00N 59°26' E 005°12'1 2.2
2017-Aug-10 11:30N 59°27' E 005°11'  
Track history (hours):
 
Tides and Currents Weather Stations Pressure Air Temp Water Temp Dewpoint Dewpoint Depression Visibility Wind Speed Wind Dir Waves Ship Positions

Christian Radich (Norway)

Last reported at 2017-Aug-20 11:28 UTC. Time now 2017-Aug-20 11:30 UTC.
Position N 59°54' E 010°44'.

Length 63 m; draft 5 m.

Type: Sailing vessel. MMSI: 258373000.

Date/timePositionNaut miles runAvg speedWind from/ knotsBaromVisibWave heightAir tempDewpointWater temp
2017-Aug-20 11:28N 59°54' E 010°44'0 0.0
2017-Aug-20 10:59N 59°54' E 010°44'0 0.0
2017-Aug-20 10:29N 59°54' E 010°44'0 0.0
2017-Aug-20 09:59N 59°54' E 010°44'0 0.0
2017-Aug-20 09:30N 59°54' E 010°44'0 0.0
2017-Aug-20 09:00N 59°54' E 010°44'0 0.0
2017-Aug-20 08:30N 59°54' E 010°44'0 0.0
2017-Aug-20 07:58N 59°54' E 010°44'0 0.0
2017-Aug-20 07:28N 59°54' E 010°44'0 0.0
2017-Aug-20 06:58N 59°54' E 010°44'0 0.0
2017-Aug-20 06:29N 59°54' E 010°44'0 0.0
2017-Aug-20 05:59N 59°54' E 010°44'0 0.0
2017-Aug-20 05:29N 59°54' E 010°44'0 0.0
2017-Aug-20 05:00N 59°54' E 010°44'0 0.0
2017-Aug-20 04:30N 59°54' E 010°44'0 0.0
2017-Aug-20 04:00N 59°54' E 010°44'0 0.0
2017-Aug-20 03:28N 59°54' E 010°44'0 0.0
2017-Aug-20 02:58N 59°54' E 010°44'0 0.0
2017-Aug-20 02:28N 59°54' E 010°44'0 0.0
2017-Aug-20 01:59N 59°54' E 010°44'0 0.0
2017-Aug-20 01:29N 59°54' E 010°44'0 0.0
2017-Aug-20 00:58N 59°54' E 010°44'0 0.0
2017-Aug-20 00:29N 59°54' E 010°44'0 0.0
2017-Aug-19 23:59N 59°54' E 010°44'0 0.0
2017-Aug-19 23:29N 59°54' E 010°44'0 0.0
2017-Aug-19 22:58N 59°54' E 010°44'0 0.0
2017-Aug-19 22:28N 59°54' E 010°44'0 0.0
2017-Aug-19 21:59N 59°54' E 010°44'0 0.0
2017-Aug-19 21:29N 59°54' E 010°44'0 0.0
2017-Aug-19 20:59N 59°54' E 010°44'0 0.0
2017-Aug-19 20:30N 59°54' E 010°44'0 0.1
2017-Aug-19 20:00N 59°54' E 010°44'2 3.7
2017-Aug-19 19:30N 59°53' E 010°41'1 2.2
2017-Aug-19 19:00N 59°53' E 010°39'1 2.7
2017-Aug-19 18:30N 59°52' E 010°41'2 3.0
2017-Aug-19 18:00N 59°51' E 010°42'2 3.4
2017-Aug-19 17:30N 59°50' E 010°45'1 2.5
2017-Aug-19 17:00N 59°52' E 010°45'1 2.5
2017-Aug-19 16:30N 59°53' E 010°45'1 1.2
2017-Aug-19 16:00N 59°53' E 010°44'1 2.7
2017-Aug-19 15:30N 59°54' E 010°44'0 0.2
2017-Aug-19 14:59N 59°54' E 010°44'0 0.0
2017-Aug-19 14:00N 59°54' E 010°44'0 0.0
2017-Aug-19 13:30N 59°54' E 010°44'0 0.0
2017-Aug-19 12:58N 59°54' E 010°44'0 0.0
2017-Aug-19 12:28N 59°54' E 010°44'0 0.0
2017-Aug-19 12:00N 59°54' E 010°44'1 2.3
2017-Aug-19 11:30N 59°54' E 010°42'1 2.7
2017-Aug-19 11:00N 59°53' E 010°41'2 4.2
2017-Aug-19 10:30N 59°51' E 010°44'2 4.1
2017-Aug-19 10:00N 59°53' E 010°44'1 2.6
2017-Aug-19 09:29N 59°54' E 010°44'0 0.5
2017-Aug-19 08:59N 59°54' E 010°44'0 0.0
2017-Aug-19 08:30N 59°54' E 010°44'0 0.0
2017-Aug-19 08:00N 59°54' E 010°44'0 0.0
2017-Aug-19 07:30N 59°54' E 010°44'0 0.0
2017-Aug-19 06:58N 59°54' E 010°44'0 0.0
2017-Aug-19 06:28N 59°54' E 010°44'0 0.0
2017-Aug-19 05:58N 59°54' E 010°44'0 0.0
2017-Aug-19 05:29N 59°54' E 010°44'0 0.0
2017-Aug-19 04:59N 59°54' E 010°44'0 0.0
2017-Aug-19 04:29N 59°54' E 010°44'0 0.0
2017-Aug-19 04:00N 59°54' E 010°44'0 0.0
2017-Aug-19 03:28N 59°54' E 010°44'0 0.0
2017-Aug-19 02:58N 59°54' E 010°44'0 0.0
2017-Aug-19 02:29N 59°54' E 010°44'0 0.0
2017-Aug-19 01:59N 59°54' E 010°44'0 0.0
2017-Aug-19 01:29N 59°54' E 010°44'0 0.0
2017-Aug-19 00:59N 59°54' E 010°44'0 0.0
2017-Aug-19 00:29N 59°54' E 010°44'0 0.0
2017-Aug-18 23:59N 59°54' E 010°44'0 0.0
2017-Aug-18 23:30N 59°54' E 010°44'0 0.0
2017-Aug-18 22:59N 59°54' E 010°44'0 0.0
2017-Aug-18 22:25N 59°54' E 010°44'0 0.0
2017-Aug-18 21:58N 59°54' E 010°44'0 0.0
2017-Aug-18 21:28N 59°54' E 010°44'0 0.0
2017-Aug-18 20:59N 59°54' E 010°44'0 0.0
2017-Aug-18 20:29N 59°54' E 010°44'0 0.0
2017-Aug-18 19:59N 59°54' E 010°44'0 0.0
2017-Aug-18 19:30N 59°54' E 010°44'0 0.0
2017-Aug-18 19:00N 59°54' E 010°44'0 0.0
2017-Aug-18 18:30N 59°54' E 010°44'0 0.0
2017-Aug-18 17:58N 59°54' E 010°44'0 0.0
2017-Aug-18 17:28N 59°54' E 010°44'0 0.0
2017-Aug-18 16:58N 59°54' E 010°44'0 0.0
2017-Aug-18 16:29N 59°54' E 010°44'0 0.0
2017-Aug-18 15:59N 59°54' E 010°44'0 0.0
2017-Aug-18 15:29N 59°54' E 010°44'0 0.0
2017-Aug-18 15:00N 59°54' E 010°44'0 0.0
2017-Aug-18 14:00N 59°54' E 010°44'0 0.0
2017-Aug-18 13:30N 59°54' E 010°44'0 0.0
2017-Aug-18 13:00N 59°54' E 010°44'0 0.0
2017-Aug-18 12:30N 59°54' E 010°44'0 0.0
2017-Aug-18 11:57N 59°54' E 010°44'0 0.0
2017-Aug-18 11:30N 59°54' E 010°44'0 0.0
2017-Aug-18 10:58N 59°54' E 010°44'0 0.0
2017-Aug-18 10:29N 59°54' E 010°44'0 0.0
2017-Aug-18 09:59N 59°54' E 010°44'0 0.0
2017-Aug-18 09:29N 59°54' E 010°44'0 0.0
2017-Aug-18 09:00N 59°54' E 010°44'0 0.0
2017-Aug-18 08:30N 59°54' E 010°44'0 0.0
2017-Aug-18 08:00N 59°54' E 010°44'0 0.0
2017-Aug-18 07:28N 59°54' E 010°44'0 0.0
2017-Aug-18 06:58N 59°54' E 010°44'0 0.0
2017-Aug-18 06:28N 59°54' E 010°44'0 0.0
2017-Aug-18 05:59N 59°54' E 010°44'0 0.0
2017-Aug-18 05:29N 59°54' E 010°44'0 0.0
2017-Aug-18 04:59N 59°54' E 010°44'0 0.0
2017-Aug-18 04:30N 59°54' E 010°44'0 0.0
2017-Aug-18 04:00N 59°54' E 010°44'0 0.0
2017-Aug-18 03:29N 59°54' E 010°44'0 0.0
2017-Aug-18 02:59N 59°54' E 010°44'0 0.0
2017-Aug-18 02:30N 59°54' E 010°44'0 0.0
2017-Aug-18 02:00N 59°54' E 010°44'0 0.0
2017-Aug-18 01:30N 59°54' E 010°44'0 0.0
2017-Aug-18 00:59N 59°54' E 010°44'0 0.0
2017-Aug-18 00:29N 59°54' E 010°44'0 0.0
2017-Aug-18 00:00N 59°54' E 010°44'0 0.0
2017-Aug-17 23:30N 59°54' E 010°44'0 0.0
2017-Aug-17 23:00N 59°54' E 010°44'0 0.0
2017-Aug-17 22:28N 59°54' E 010°44'0 0.0
2017-Aug-17 21:58N 59°54' E 010°44'0 0.0
2017-Aug-17 21:29N 59°54' E 010°44'0 0.0
2017-Aug-17 20:59N 59°54' E 010°44'0 0.0
2017-Aug-17 20:29N 59°54' E 010°44'0 0.0
2017-Aug-17 20:00N 59°54' E 010°44'0 0.0
2017-Aug-17 18:40N 59°54' E 010°44'0 0.0
2017-Aug-17 18:28N 59°54' E 010°44'0 0.0
2017-Aug-17 17:58N 59°54' E 010°44'0 0.0
2017-Aug-17 17:28N 59°54' E 010°44'0 0.0
2017-Aug-17 16:59N 59°54' E 010°44'0 0.0
2017-Aug-17 16:29N 59°54' E 010°44'0 0.0
2017-Aug-17 15:59N 59°54' E 010°44'0 0.0
2017-Aug-17 15:30N 59°54' E 010°44'0 0.0
2017-Aug-17 15:00N 59°54' E 010°44'0 0.0
2017-Aug-17 14:30N 59°54' E 010°44'0 0.0
2017-Aug-17 13:58N 59°54' E 010°44'0 0.0
2017-Aug-17 13:28N 59°54' E 010°44'0 0.0
2017-Aug-17 12:58N 59°54' E 010°44'0 0.0
2017-Aug-17 12:29N 59°54' E 010°44'0 0.0
2017-Aug-17 11:59N 59°54' E 010°44'0 0.0
2017-Aug-17 11:29N 59°54' E 010°44'0 0.0
2017-Aug-17 11:00N 59°54' E 010°44'0 0.0
2017-Aug-17 10:30N 59°54' E 010°44'0 0.0
2017-Aug-17 10:00N 59°54' E 010°44'0 0.0
2017-Aug-17 09:28N 59°54' E 010°44'0 0.0
2017-Aug-17 08:58N 59°54' E 010°44'0 0.0
2017-Aug-17 08:28N 59°54' E 010°44'0 0.0
2017-Aug-17 07:58N 59°54' E 010°44'1 2.4
2017-Aug-17 07:30N 59°54' E 010°42'2 3.7
2017-Aug-17 07:00N 59°53' E 010°39'2 3.1
2017-Aug-17 06:30N 59°51' E 010°38'2 3.0
2017-Aug-17 06:00N 59°50' E 010°36'1 2.7
2017-Aug-17 05:30N 59°49' E 010°35'2 4.9
2017-Aug-17 05:00N 59°46' E 010°35'2 4.8
2017-Aug-17 04:30N 59°44' E 010°35'2 4.5
2017-Aug-17 04:00N 59°42' E 010°36'2 3.8
2017-Aug-17 03:30N 59°40' E 010°37'2 4.4
2017-Aug-17 03:00N 59°38' E 010°38'2 4.6
2017-Aug-17 02:30N 59°36' E 010°38'2 4.4
2017-Aug-17 02:00N 59°33' E 010°38'2 4.3
2017-Aug-17 01:30N 59°31' E 010°36'2 4.5
2017-Aug-17 01:00N 59°29' E 010°35'2 4.4
2017-Aug-17 00:30N 59°27' E 010°34'2 4.0
2017-Aug-17 00:00N 59°25' E 010°34'2 4.3
2017-Aug-16 23:30N 59°23' E 010°35'3 5.0
2017-Aug-16 23:00N 59°20' E 010°36'3 5.1
2017-Aug-16 22:30N 59°18' E 010°37'2 3.8
2017-Aug-16 22:00N 59°16' E 010°37'2 4.7
2017-Aug-16 21:30N 59°14' E 010°38'3 5.5
2017-Aug-16 21:00N 59°11' E 010°39'3 6.2
2017-Aug-16 20:30N 59°08' E 010°39'3 6.4
2017-Aug-16 20:00N 59°05' E 010°39'3 6.3
2017-Aug-16 19:30N 59°02' E 010°39'3 5.8
2017-Aug-16 19:01N 58°59' E 010°37'3 6.3
2017-Aug-16 18:30N 58°58' E 010°31'3 5.8
2017-Aug-16 18:00N 58°56' E 010°26'3 5.7
2017-Aug-16 17:30N 58°55' E 010°21'3 5.7
2017-Aug-16 17:00N 58°54' E 010°16'3 5.6
2017-Aug-16 16:30N 58°52' E 010°11'3 5.8
2017-Aug-16 16:00N 58°51' E 010°06'3 5.4
2017-Aug-16 15:31N 58°50' E 010°02'3 6.0
2017-Aug-16 15:00N 58°49' E 009°57'3 6.5
2017-Aug-16 14:30N 58°47' E 009°51'3 6.6
2017-Aug-16 14:00N 58°46' E 009°45'3 6.4
2017-Aug-16 13:30N 58°45' E 009°39'3 5.8
2017-Aug-16 13:00N 58°44' E 009°34'3 5.5
2017-Aug-16 12:30N 58°43' E 009°29'3 6.2
2017-Aug-16 11:57N 58°42' E 009°23'3 6.3
2017-Aug-16 11:30N 58°42' E 009°17'2 2.7
2017-Aug-16 10:50N 58°43' E 009°14'0 0.0
2017-Aug-16 10:29N 58°43' E 009°14'0 0.0
2017-Aug-16 09:48N 58°43' E 009°14'0 0.0
2017-Aug-16 09:30N 58°43' E 009°14'0 0.0
2017-Aug-16 09:00N 58°43' E 009°14'0 0.0
2017-Aug-16 08:19N 58°43' E 009°14'0 0.0
2017-Aug-16 07:55N 58°43' E 009°14'0 0.0
2017-Aug-16 07:28N 58°43' E 009°14'0 0.0
2017-Aug-16 06:55N 58°43' E 009°14'0 0.3
2017-Aug-16 06:30N 58°43' E 009°15'1 2.9
2017-Aug-16 05:59N 58°42' E 009°15'1 2.6
2017-Aug-16 05:30N 58°40' E 009°16'1 2.8
2017-Aug-16 05:01N 58°39' E 009°16'2 3.4
2017-Aug-16 04:30N 58°38' E 009°15'2 4.5
2017-Aug-16 04:01N 58°36' E 009°12'2 4.5
2017-Aug-16 03:30N 58°34' E 009°10'2 4.4
2017-Aug-16 03:00N 58°32' E 009°07'2 3.9
2017-Aug-16 02:30N 58°31' E 009°05'2 3.9
2017-Aug-16 02:00N 58°29' E 009°03'2 4.1
2017-Aug-16 01:30N 58°27' E 009°01'2 3.6
2017-Aug-16 01:00N 58°26' E 008°59'2 3.6
2017-Aug-16 00:30N 58°24' E 008°57'2 3.1
2017-Aug-16 00:00N 58°23' E 008°55'2 4.3
2017-Aug-15 23:30N 58°21' E 008°52'2 5.0
2017-Aug-15 23:00N 58°20' E 008°49'2 5.0
2017-Aug-15 22:30N 58°18' E 008°46'2 4.9
2017-Aug-15 22:00N 58°16' E 008°42'2 4.9
2017-Aug-15 21:30N 58°14' E 008°39'2 4.9
2017-Aug-15 21:00N 58°13' E 008°35'2 5.0
2017-Aug-15 20:30N 58°11' E 008°32'2 5.0
2017-Aug-15 20:00N 58°09' E 008°29'3 5.0
2017-Aug-15 19:30N 58°08' E 008°25'2 4.8
2017-Aug-15 19:00N 58°06' E 008°22'2 4.7
2017-Aug-15 18:30N 58°05' E 008°18'2 4.8
2017-Aug-15 18:00N 58°04' E 008°14'3 5.0
2017-Aug-15 17:30N 58°03' E 008°09'2 5.0
2017-Aug-15 17:00N 58°02' E 008°05'3 6.4
2017-Aug-15 16:30N 58°01' E 007°60'3 6.1
2017-Aug-15 16:00N 57°59' E 007°55'3 6.0
2017-Aug-15 15:30N 57°59' E 007°49'3 5.9
2017-Aug-15 15:00N 57°58' E 007°44'3 6.0
2017-Aug-15 14:30N 57°57' E 007°38'3 6.1
2017-Aug-15 14:00N 57°56' E 007°33'3 6.0
2017-Aug-15 13:31N 57°56' E 007°27'3 6.1
2017-Aug-15 12:59N 57°56' E 007°21'3 5.7
2017-Aug-15 12:30N 57°56' E 007°16'3 5.5
2017-Aug-15 12:00N 57°56' E 007°11'2 5.1
2017-Aug-15 11:31N 57°56' E 007°06'2 4.5
2017-Aug-15 11:00N 57°57' E 007°02'2 4.3
2017-Aug-15 10:31N 57°57' E 006°58'2 4.3
2017-Aug-15 10:00N 57°57' E 006°54'2 4.2
2017-Aug-15 09:31N 57°58' E 006°50'2 3.8
2017-Aug-15 09:01N 57°58' E 006°47'2 3.7
2017-Aug-15 08:30N 57°59' E 006°43'2 3.4
2017-Aug-15 08:01N 58°00' E 006°41'2 3.5
2017-Aug-15 07:31N 58°01' E 006°38'2 3.8
2017-Aug-15 07:00N 58°02' E 006°35'2 3.9
2017-Aug-15 06:30N 58°03' E 006°32'2 4.2
2017-Aug-15 06:00N 58°04' E 006°28'2 4.3
2017-Aug-15 05:31N 58°05' E 006°25'2 4.5
2017-Aug-15 05:01N 58°06' E 006°21'2 4.3
2017-Aug-15 04:30N 58°07' E 006°17'0 0.9
2017-Aug-15 04:00N 58°07' E 006°18'1 1.4
2017-Aug-15 03:31N 58°08' E 006°17'2 3.3
2017-Aug-15 03:00N 58°09' E 006°15'2 3.5
2017-Aug-15 02:31N 58°11' E 006°14'2 3.4
2017-Aug-15 02:00N 58°12' E 006°11'2 3.1
2017-Aug-15 01:30N 58°13' E 006°09'2 3.1
2017-Aug-15 01:00N 58°14' E 006°07'2 3.1
2017-Aug-15 00:30N 58°15' E 006°05'2 3.3
2017-Aug-15 00:01N 58°16' E 006°03'2 3.3
2017-Aug-14 23:30N 58°17' E 006°00'2 3.2
2017-Aug-14 23:01N 58°18' E 005°58'2 3.5
2017-Aug-14 22:30N 58°20' E 005°56'2 4.2
2017-Aug-14 22:00N 58°21' E 005°53'2 4.5
2017-Aug-14 21:31N 58°23' E 005°50'2 4.7
2017-Aug-14 21:01N 58°25' E 005°47'2 4.5
2017-Aug-14 20:30N 58°26' E 005°45'2 4.6
2017-Aug-14 20:00N 58°28' E 005°42'2 4.7
2017-Aug-14 19:30N 58°30' E 005°38'3 5.8
2017-Aug-14 19:01N 58°32' E 005°34'3 6.5
2017-Aug-14 18:31N 58°35' E 005°32'3 7.0
2017-Aug-14 18:01N 58°38' E 005°29'4 7.6
2017-Aug-14 17:30N 58°42' E 005°27'4 7.9
2017-Aug-14 17:01N 58°45' E 005°26'4 7.4
2017-Aug-14 16:31N 58°49' E 005°26'4 8.0
2017-Aug-14 16:00N 58°52' E 005°31'4 8.3
2017-Aug-14 15:30N 58°56' E 005°33'4 8.1
2017-Aug-14 15:01N 59°00' E 005°33'3 5.6
2017-Aug-14 14:30N 59°03' E 005°36'5 9.3
2017-Aug-14 14:00N 58°59' E 005°43'1 2.2
2017-Aug-14 13:31N 59°00' E 005°41'4 7.1
2017-Aug-14 13:01N 59°02' E 005°36'3 6.8
2017-Aug-14 12:31N 59°05' E 005°32'3 6.3
2017-Aug-14 12:01N 59°06' E 005°26'0 1.0
2017-Aug-14 11:30N 59°06' E 005°25'1 2.4
2017-Aug-14 11:00N 59°07' E 005°23'3 6.2
2017-Aug-14 10:30N 59°08' E 005°17'1 1.5
2017-Aug-14 09:59N 59°09' E 005°16'0 0.0
2017-Aug-14 09:29N 59°09' E 005°16'0 0.0
2017-Aug-14 08:59N 59°09' E 005°16'0 0.0
2017-Aug-14 08:30N 59°09' E 005°16'0 0.0
2017-Aug-14 08:00N 59°09' E 005°16'0 0.0
2017-Aug-14 07:30N 59°09' E 005°16'0 0.0
2017-Aug-14 06:58N 59°09' E 005°16'0 0.0
2017-Aug-14 06:28N 59°09' E 005°16'0 0.0
2017-Aug-14 05:58N 59°09' E 005°16'0 0.0
2017-Aug-14 05:29N 59°09' E 005°16'0 0.0
2017-Aug-14 04:59N 59°09' E 005°16'0 0.0
2017-Aug-14 04:29N 59°09' E 005°16'0 0.0
2017-Aug-14 04:00N 59°09' E 005°16'0 0.0
2017-Aug-14 03:30N 59°09' E 005°16'0 0.0
2017-Aug-14 03:00N 59°09' E 005°16'0 0.0
2017-Aug-14 02:28N 59°09' E 005°16'0 0.0
2017-Aug-14 01:58N 59°09' E 005°16'0 0.0
2017-Aug-14 01:28N 59°09' E 005°16'0 0.0
2017-Aug-14 00:59N 59°09' E 005°16'0 0.0
2017-Aug-14 00:29N 59°09' E 005°16'0 0.0
2017-Aug-13 23:59N 59°09' E 005°16'0 0.0
2017-Aug-13 23:30N 59°09' E 005°16'0 0.0
2017-Aug-13 23:00N 59°09' E 005°16'0 0.0
2017-Aug-13 22:30N 59°09' E 005°16'0 0.0
2017-Aug-13 21:58N 59°09' E 005°16'0 0.0
2017-Aug-13 21:28N 59°09' E 005°16'0 0.0
2017-Aug-13 20:58N 59°09' E 005°16'0 0.0
2017-Aug-13 20:29N 59°09' E 005°16'0 0.0
2017-Aug-13 19:59N 59°09' E 005°16'0 0.0
2017-Aug-13 19:29N 59°09' E 005°16'0 0.0
2017-Aug-13 19:00N 59°09' E 005°16'1 1.8
2017-Aug-13 18:30N 59°08' E 005°18'1 2.8
2017-Aug-13 18:00N 59°09' E 005°20'3 5.1
2017-Aug-13 17:30N 59°11' E 005°20'2 4.2
2017-Aug-13 17:00N 59°13' E 005°21'2 4.8
2017-Aug-13 16:30N 59°11' E 005°21'2 4.9
2017-Aug-13 16:00N 59°08' E 005°21'2 3.6
2017-Aug-13 15:31N 59°08' E 005°18'1 2.0
2017-Aug-13 14:58N 59°09' E 005°16'0 0.0
2017-Aug-13 14:28N 59°09' E 005°16'0 0.0
2017-Aug-13 13:59N 59°09' E 005°16'0 0.0
2017-Aug-13 13:29N 59°09' E 005°16'0 0.0
2017-Aug-13 13:00N 59°09' E 005°16'1 2.3
2017-Aug-13 12:31N 59°08' E 005°18'2 4.2
2017-Aug-13 12:01N 59°10' E 005°20'3 5.2
2017-Aug-13 11:31N 59°12' E 005°20'3 6.3
2017-Aug-13 11:01N 59°16' E 005°20'3 6.5
2017-Aug-13 10:30N 59°19' E 005°20'3 6.1
2017-Aug-13 10:00N 59°22' E 005°18'3 5.9
2017-Aug-13 09:31N 59°24' E 005°16'0 0.8
2017-Aug-13 08:58N 59°25' E 005°16'0 0.0
2017-Aug-13 08:29N 59°25' E 005°16'0 0.0
2017-Aug-13 07:59N 59°25' E 005°16'0 0.0
2017-Aug-13 07:29N 59°25' E 005°16'0 0.0
2017-Aug-13 07:00N 59°25' E 005°16'0 0.0
2017-Aug-13 06:30N 59°25' E 005°16'0 0.0
2017-Aug-13 06:00N 59°25' E 005°16'0 0.0
2017-Aug-13 05:28N 59°25' E 005°16'0 0.0
2017-Aug-13 04:58N 59°25' E 005°16'0 0.0
2017-Aug-13 04:28N 59°25' E 005°16'0 0.0
2017-Aug-13 03:59N 59°25' E 005°16'0 0.0
2017-Aug-13 03:29N 59°25' E 005°16'0 0.0
2017-Aug-13 02:59N 59°25' E 005°16'0 0.0
2017-Aug-13 02:30N 59°25' E 005°16'0 0.0
2017-Aug-13 02:00N 59°25' E 005°16'0 0.0
2017-Aug-13 01:30N 59°25' E 005°16'0 0.0
2017-Aug-13 00:58N 59°25' E 005°16'0 0.0
2017-Aug-13 00:28N 59°25' E 005°16'0 0.0
2017-Aug-12 23:58N 59°25' E 005°16'0 0.0
2017-Aug-12 23:29N 59°25' E 005°16'0 0.0
2017-Aug-12 22:59N 59°25' E 005°16'0 0.0
2017-Aug-12 22:29N 59°25' E 005°16'0 0.0
2017-Aug-12 22:00N 59°25' E 005°16'0 0.0
2017-Aug-12 21:27N 59°25' E 005°16'0 0.0
2017-Aug-12 21:00N 59°25' E 005°16'0 0.0
2017-Aug-12 20:22N 59°25' E 005°16'0 0.0
2017-Aug-12 19:58N 59°25' E 005°16'0 0.0
2017-Aug-12 19:22N 59°25' E 005°16'0 0.0
2017-Aug-12 18:59N 59°25' E 005°16'0 0.0
2017-Aug-12 18:29N 59°25' E 005°16'0 0.0
2017-Aug-12 17:59N 59°25' E 005°16'0 0.0
2017-Aug-12 17:30N 59°25' E 005°16'0 0.0
2017-Aug-12 17:00N 59°25' E 005°16'0 0.0
2017-Aug-12 16:27N 59°25' E 005°16'0 0.0
2017-Aug-12 15:58N 59°25' E 005°16'0 0.0
2017-Aug-12 15:28N 59°25' E 005°16'0 0.0
2017-Aug-12 14:58N 59°25' E 005°16'0 0.0
2017-Aug-12 14:26N 59°25' E 005°16'0 0.0
2017-Aug-12 13:59N 59°25' E 005°16'0 0.0
2017-Aug-12 13:29N 59°25' E 005°16'0 0.0
2017-Aug-12 13:00N 59°25' E 005°16'0 0.0
2017-Aug-12 12:30N 59°25' E 005°16'0 0.0
2017-Aug-12 11:57N 59°25' E 005°16'0 0.0
2017-Aug-12 11:22N 59°25' E 005°16'0 0.0
2017-Aug-12 10:58N 59°25' E 005°16'0 0.0
2017-Aug-12 10:28N 59°25' E 005°16'0 0.0
2017-Aug-12 09:59N 59°25' E 005°16'0 0.0
2017-Aug-12 09:29N 59°25' E 005°16'0 0.0
2017-Aug-12 08:59N 59°25' E 005°16'0 0.0
2017-Aug-12 08:30N 59°25' E 005°16'0 0.0
2017-Aug-12 08:00N 59°25' E 005°16'0 0.0
2017-Aug-12 07:30N 59°25' E 005°16'0 0.0
2017-Aug-12 06:58N 59°25' E 005°16'0 0.0
2017-Aug-12 06:28N 59°25' E 005°16'0 0.0
2017-Aug-12 05:58N 59°25' E 005°16'0 0.0
2017-Aug-12 05:29N 59°25' E 005°16'0 0.0
2017-Aug-12 04:59N 59°25' E 005°16'0 0.0
2017-Aug-12 04:29N 59°25' E 005°16'0 0.0
2017-Aug-12 04:00N 59°25' E 005°16'0 0.0
2017-Aug-12 03:30N 59°25' E 005°16'0 0.0
2017-Aug-12 03:00N 59°25' E 005°16'0 0.0
2017-Aug-12 02:28N 59°25' E 005°16'0 0.0
2017-Aug-12 01:55N 59°25' E 005°16'0 0.0
2017-Aug-12 01:28N 59°25' E 005°16'0 0.0
2017-Aug-12 00:59N 59°25' E 005°16'0 0.0
2017-Aug-12 00:29N 59°25' E 005°16'0 0.0
2017-Aug-11 23:59N 59°25' E 005°16'0 0.0
2017-Aug-11 23:30N 59°25' E 005°16'0 0.0
2017-Aug-11 23:00N 59°25' E 005°16'0 0.0
2017-Aug-11 22:30N 59°25' E 005°16'0 0.0
2017-Aug-11 21:58N 59°25' E 005°16'0 0.0
2017-Aug-11 21:28N 59°25' E 005°16'0 0.0
2017-Aug-11 20:58N 59°25' E 005°16'0 0.0
2017-Aug-11 20:29N 59°25' E 005°16'0 0.0
2017-Aug-11 19:59N 59°25' E 005°16'0 0.0
2017-Aug-11 19:26N 59°25' E 005°16'0 0.0
2017-Aug-11 19:00N 59°25' E 005°16'0 0.0
2017-Aug-11 18:30N 59°25' E 005°16'0 0.0
2017-Aug-11 18:00N 59°25' E 005°16'0 0.0
2017-Aug-11 17:28N 59°25' E 005°16'0 0.0
2017-Aug-11 16:58N 59°25' E 005°16'0 0.0
2017-Aug-11 16:28N 59°25' E 005°16'0 0.0
2017-Aug-11 15:59N 59°25' E 005°16'0 0.0
2017-Aug-11 15:29N 59°25' E 005°16'0 0.0
2017-Aug-11 14:59N 59°25' E 005°16'0 0.0
2017-Aug-11 14:30N 59°25' E 005°16'0 0.0
2017-Aug-11 13:26N 59°25' E 005°16'0 0.0
2017-Aug-11 12:56N 59°25' E 005°16'0 0.0
2017-Aug-11 12:29N 59°25' E 005°16'0 0.0
2017-Aug-11 11:59N 59°25' E 005°16'0 0.0
2017-Aug-11 11:27N 59°25' E 005°16'0 0.0
2017-Aug-11 11:00N 59°25' E 005°16'0 0.0
2017-Aug-11 10:30N 59°25' E 005°16'0 0.0
2017-Aug-11 09:58N 59°25' E 005°16'0 0.0
2017-Aug-11 09:28N 59°25' E 005°16'0 0.0
2017-Aug-11 08:59N 59°25' E 005°16'0 0.0
2017-Aug-11 08:29N 59°25' E 005°16'0 0.0
2017-Aug-11 07:59N 59°25' E 005°16'0 0.0
2017-Aug-11 07:30N 59°25' E 005°16'0 0.0
2017-Aug-11 07:00N 59°25' E 005°16'0 0.0
2017-Aug-11 06:30N 59°25' E 005°16'0 0.0
2017-Aug-11 06:01N 59°25' E 005°16'0 0.0
2017-Aug-11 05:28N 59°25' E 005°16'0 0.0
2017-Aug-11 04:58N 59°25' E 005°16'0 0.0
2017-Aug-11 04:29N 59°25' E 005°16'0 0.0
2017-Aug-11 03:56N 59°25' E 005°16'0 0.0
2017-Aug-11 03:29N 59°25' E 005°16'0 0.0
2017-Aug-11 03:00N 59°25' E 005°16'0 0.0
2017-Aug-11 02:27N 59°25' E 005°16'0 0.0
2017-Aug-11 01:57N 59°25' E 005°16'0 0.0
2017-Aug-11 01:28N 59°25' E 005°16'0 0.0
2017-Aug-11 00:58N 59°25' E 005°16'0 0.0
2017-Aug-11 00:28N 59°25' E 005°16'0 0.0
2017-Aug-10 23:59N 59°25' E 005°16'0 0.0
2017-Aug-10 23:26N 59°25' E 005°16'0 0.0
2017-Aug-10 22:59N 59°25' E 005°16'0 0.0
2017-Aug-10 22:30N 59°25' E 005°16'0 0.0
2017-Aug-10 22:00N 59°25' E 005°16'0 0.0
2017-Aug-10 21:30N 59°25' E 005°16'0 0.0
2017-Aug-10 21:00N 59°25' E 005°16'0 0.0
2017-Aug-10 20:28N 59°25' E 005°16'0 0.0
2017-Aug-10 19:58N 59°25' E 005°16'0 0.0
2017-Aug-10 19:29N 59°25' E 005°16'0 0.0
2017-Aug-10 18:59N 59°25' E 005°16'0 0.0
2017-Aug-10 18:29N 59°25' E 005°16'0 0.0
2017-Aug-10 17:59N 59°25' E 005°16'0 0.0
2017-Aug-10 17:30N 59°25' E 005°16'0 0.0
2017-Aug-10 17:00N 59°25' E 005°16'0 0.0
2017-Aug-10 16:30N 59°25' E 005°16'0 0.0
2017-Aug-10 15:58N 59°25' E 005°16'0 0.0
2017-Aug-10 15:28N 59°25' E 005°16'0 0.0
2017-Aug-10 15:00N 59°25' E 005°16'0 0.3
2017-Aug-10 14:30N 59°25' E 005°16'1 1.7
2017-Aug-10 13:58N 59°24' E 005°16'1 2.0
2017-Aug-10 13:30N 59°23' E 005°17'1 2.1
2017-Aug-10 13:00N 59°24' E 005°16'2 3.1
2017-Aug-10 12:30N 59°25' E 005°14'1 2.5
2017-Aug-10 12:00N 59°26' E 005°12'1 2.2
2017-Aug-10 11:30N 59°27' E 005°11'  

Dump ship's entire track history